Audubon, Illinois
Current Conditions -  °F | °C
As of 2:35 AM on Monday 26 Jan 2015 (Local Time) from KTAZ Reporting Station
Overcast Overcast  
Wind Chill: -10°   Ceiling: 1400
Heat Index: -3°   Visibility: 10mi
Dew Point: -6°   Wind: 15mph
Humidity: 80%   Direction: 340°NNW
Pressure: 30.02"   Gusts: 18mph
Location:  39.3183°N, 89.2952°W
Report Text: KTAZ 260835Z AUTO 34013G16KT 10SM OVC014 M03/M06 A3002 RMK AO2
Loading
Personal Weather Stations






























Interactive Weather Map New forecast layout! Learn more

10-Day Weather Forecast

Advertisements
Track Severe Weather on mobile